International Virtual Aviation Organisation

Eastern Europe and Northern Asia MCD

 
UATE 101100Z 30007MPS 270V330 CAVOK 13/07 Q1016 R30/0///70 NOSIG RMK QFE761/1014
QNH:(hPa/inHg/mmHg)1016 / 30 / 762
QFE:(hPa/inHg/mmHg)1013 / 29.92 / 760
Temperature13
Dew Point7
Visibility> 10000
WeatherCAVOK
Cloud Cover
Transition Height2050 m./6900 ft.
Transition LevelFL80
SQUAWK